sensor_id;sensor_type;location;lat;lon;timestamp;pressure;altitude;pressure_sealevel;temperature;humidity
64402;BME280;50724;42.376;23.768;2023-02-11T00:02:50;94654.81;;;-6.62;75.72
64402;BME280;50724;42.376;23.768;2023-02-11T00:05:58;94652.31;;;-6.64;75.59
64402;BME280;50724;42.376;23.768;2023-02-11T00:08:59;94646.25;;;-6.57;76.29
64402;BME280;50724;42.376;23.768;2023-02-11T00:11:59;94646.16;;;-6.54;75.89
64402;BME280;50724;42.376;23.768;2023-02-11T00:15:00;94658.91;;;-6.55;75.62
64402;BME280;50724;42.376;23.768;2023-02-11T00:18:00;94661.50;;;-6.57;75.52
64402;BME280;50724;42.376;23.768;2023-02-11T00:21:08;94652.63;;;-6.36;75.48
64402;BME280;50724;42.376;23.768;2023-02-11T00:24:08;94653.44;;;-6.34;75.38
64402;BME280;50724;42.376;23.768;2023-02-11T00:27:09;94650.53;;;-5.78;72.84
64402;BME280;50724;42.376;23.768;2023-02-11T00:30:10;94651.50;;;-5.83;72.45
64402;BME280;50724;42.376;23.768;2023-02-11T00:33:10;94651.88;;;-6.00;73.30
64402;BME280;50724;42.376;23.768;2023-02-11T00:36:14;94654.00;;;-6.20;74.22
64402;BME280;50724;42.376;23.768;2023-02-11T00:39:14;94653.72;;;-6.06;73.00
64402;BME280;50724;42.376;23.768;2023-02-11T00:42:15;94642.66;;;-6.05;73.15
64402;BME280;50724;42.376;23.768;2023-02-11T00:45:16;94643.22;;;-5.93;73.17
64402;BME280;50724;42.376;23.768;2023-02-11T00:48:16;94643.16;;;-5.51;72.03
64402;BME280;50724;42.376;23.768;2023-02-11T00:51:17;94644.53;;;-5.37;71.24
64402;BME280;50724;42.376;23.768;2023-02-11T00:54:17;94645.22;;;-5.30;71.00
64402;BME280;50724;42.376;23.768;2023-02-11T00:57:17;94630.38;;;-5.15;70.27
64402;BME280;50724;42.376;23.768;2023-02-11T01:00:18;94634.28;;;-5.00;70.00
64402;BME280;50724;42.376;23.768;2023-02-11T01:03:18;94634.69;;;-5.17;70.21
64402;BME280;50724;42.376;23.768;2023-02-11T01:06:19;94641.31;;;-5.45;70.67
64402;BME280;50724;42.376;23.768;2023-02-11T01:09:19;94637.75;;;-5.75;71.58
64402;BME280;50724;42.376;23.768;2023-02-11T01:12:20;94633.78;;;-5.88;72.28
64402;BME280;50724;42.376;23.768;2023-02-11T01:15:21;94631.84;;;-6.16;73.44
64402;BME280;50724;42.376;23.768;2023-02-11T01:18:21;94625.38;;;-6.31;74.52
64402;BME280;50724;42.376;23.768;2023-02-11T01:21:22;94630.19;;;-6.17;74.83
64402;BME280;50724;42.376;23.768;2023-02-11T01:24:22;94621.09;;;-6.31;76.13
64402;BME280;50724;42.376;23.768;2023-02-11T01:27:22;94610.31;;;-6.40;76.57
64402;BME280;50724;42.376;23.768;2023-02-11T01:30:23;94609.47;;;-6.42;76.66
64402;BME280;50724;42.376;23.768;2023-02-11T01:33:23;94603.56;;;-6.44;76.78
64402;BME280;50724;42.376;23.768;2023-02-11T01:36:24;94608.00;;;-6.54;77.28
64402;BME280;50724;42.376;23.768;2023-02-11T01:39:25;94592.44;;;-6.80;76.88
64402;BME280;50724;42.376;23.768;2023-02-11T01:42:27;94580.75;;;-6.90;77.74
64402;BME280;50724;42.376;23.768;2023-02-11T01:48:47;94580.19;;;-7.07;78.74
64402;BME280;50724;42.376;23.768;2023-02-11T01:55:02;94581.69;;;-7.44;79.98
64402;BME280;50724;42.376;23.768;2023-02-11T01:58:21;94578.66;;;-7.16;80.05
64402;BME280;50724;42.376;23.768;2023-02-11T02:01:24;94573.28;;;-7.01;78.92
64402;BME280;50724;42.376;23.768;2023-02-11T02:04:28;94573.75;;;-7.26;79.68
64402;BME280;50724;42.376;23.768;2023-02-11T02:07:59;94564.03;;;-7.50;80.13
64402;BME280;50724;42.376;23.768;2023-02-11T02:10:57;94562.31;;;-7.48;81.22
64402;BME280;50724;42.376;23.768;2023-02-11T02:14:00;94567.03;;;-7.29;80.84
64402;BME280;50724;42.376;23.768;2023-02-11T02:17:00;94570.25;;;-7.18;80.43
64402;BME280;50724;42.376;23.768;2023-02-11T02:20:14;94557.78;;;-7.33;80.20
64402;BME280;50724;42.376;23.768;2023-02-11T02:37:06;94565.16;;;-7.68;81.93
64402;BME280;50724;42.376;23.768;2023-02-11T02:40:19;94570.88;;;-7.57;82.74
64402;BME280;50724;42.376;23.768;2023-02-11T02:43:22;94571.97;;;-7.70;82.54
64402;BME280;50724;42.376;23.768;2023-02-11T02:46:24;94564.44;;;-7.78;82.73
64402;BME280;50724;42.376;23.768;2023-02-11T02:49:25;94575.25;;;-7.65;82.76
64402;BME280;50724;42.376;23.768;2023-02-11T02:55:58;94572.75;;;-7.68;80.49
64402;BME280;50724;42.376;23.768;2023-02-11T02:59:36;94578.50;;;-7.55;80.58
64402;BME280;50724;42.376;23.768;2023-02-11T03:06:03;94576.69;;;-7.49;81.30
64402;BME280;50724;42.376;23.768;2023-02-11T03:09:09;94574.28;;;-7.56;81.17
64402;BME280;50724;42.376;23.768;2023-02-11T03:12:12;94583.16;;;-7.31;79.96
64402;BME280;50724;42.376;23.768;2023-02-11T03:15:16;94590.72;;;-7.27;78.11
64402;BME280;50724;42.376;23.768;2023-02-11T03:18:23;94585.00;;;-7.39;78.84
64402;BME280;50724;42.376;23.768;2023-02-11T03:21:25;94586.84;;;-7.49;79.10
64402;BME280;50724;42.376;23.768;2023-02-11T03:24:36;94584.25;;;-7.44;78.72
64402;BME280;50724;42.376;23.768;2023-02-11T03:27:42;94585.31;;;-7.59;79.82
64402;BME280;50724;42.376;23.768;2023-02-11T03:31:16;94581.19;;;-7.64;80.31
64402;BME280;50724;42.376;23.768;2023-02-11T03:34:14;94571.13;;;-7.71;80.37
64402;BME280;50724;42.376;23.768;2023-02-11T03:40:24;94577.63;;;-7.53;79.64
64402;BME280;50724;42.376;23.768;2023-02-11T03:43:34;94579.69;;;-7.26;77.98
64402;BME280;50724;42.376;23.768;2023-02-11T03:46:37;94579.31;;;-7.05;76.67
64402;BME280;50724;42.376;23.768;2023-02-11T03:49:40;94579.63;;;-6.77;74.79
64402;BME280;50724;42.376;23.768;2023-02-11T03:52:42;94578.97;;;-6.86;74.53
64402;BME280;50724;42.376;23.768;2023-02-11T03:55:46;94577.84;;;-6.72;74.24
64402;BME280;50724;42.376;23.768;2023-02-11T03:58:48;94582.16;;;-6.75;74.04
64402;BME280;50724;42.376;23.768;2023-02-11T04:01:48;94582.94;;;-6.72;73.88
64402;BME280;50724;42.376;23.768;2023-02-11T04:04:49;94568.66;;;-6.79;73.87
64402;BME280;50724;42.376;23.768;2023-02-11T04:07:49;94574.09;;;-6.99;74.55
64402;BME280;50724;42.376;23.768;2023-02-11T04:10:58;94583.63;;;-7.08;75.24
64402;BME280;50724;42.376;23.768;2023-02-11T04:13:58;94592.06;;;-7.08;75.67
64402;BME280;50724;42.376;23.768;2023-02-11T04:16:59;94588.13;;;-7.24;75.70
64402;BME280;50724;42.376;23.768;2023-02-11T04:19:59;94581.47;;;-7.31;75.60
64402;BME280;50724;42.376;23.768;2023-02-11T04:23:00;94574.88;;;-7.41;75.73
64402;BME280;50724;42.376;23.768;2023-02-11T04:26:00;94580.53;;;-7.77;76.74
64402;BME280;50724;42.376;23.768;2023-02-11T04:29:00;94582.41;;;-7.90;77.42
64402;BME280;50724;42.376;23.768;2023-02-11T04:32:01;94579.28;;;-8.08;78.00
64402;BME280;50724;42.376;23.768;2023-02-11T04:35:01;94575.88;;;-8.04;78.26
64402;BME280;50724;42.376;23.768;2023-02-11T04:38:02;94570.41;;;-8.35;79.72
64402;BME280;50724;42.376;23.768;2023-02-11T04:41:12;94574.50;;;-8.26;80.47
64402;BME280;50724;42.376;23.768;2023-02-11T04:44:12;94570.88;;;-8.10;80.22
64402;BME280;50724;42.376;23.768;2023-02-11T04:47:13;94574.47;;;-7.69;77.93
64402;BME280;50724;42.376;23.768;2023-02-11T04:50:14;94572.69;;;-7.63;77.93
64402;BME280;50724;42.376;23.768;2023-02-11T04:53:14;94568.56;;;-7.69;77.39
64402;BME280;50724;42.376;23.768;2023-02-11T04:56:15;94567.53;;;-7.59;77.35
64402;BME280;50724;42.376;23.768;2023-02-11T04:59:15;94570.31;;;-7.73;77.09
64402;BME280;50724;42.376;23.768;2023-02-11T05:02:16;94567.94;;;-7.85;77.66
64402;BME280;50724;42.376;23.768;2023-02-11T05:05:16;94570.56;;;-7.89;77.32
64402;BME280;50724;42.376;23.768;2023-02-11T05:08:17;94569.00;;;-7.98;77.60
64402;BME280;50724;42.376;23.768;2023-02-11T05:11:20;94574.22;;;-8.08;78.12
64402;BME280;50724;42.376;23.768;2023-02-11T05:14:20;94570.00;;;-8.08;77.82
64402;BME280;50724;42.376;23.768;2023-02-11T05:17:21;94557.50;;;-7.65;77.59
64402;BME280;50724;42.376;23.768;2023-02-11T05:20:21;94567.00;;;-7.76;77.07
64402;BME280;50724;42.376;23.768;2023-02-11T05:23:30;94564.19;;;-7.61;76.42
64402;BME280;50724;42.376;23.768;2023-02-11T05:26:31;94573.97;;;-7.38;75.72
64402;BME280;50724;42.376;23.768;2023-02-11T05:29:31;94562.44;;;-7.57;76.21
64402;BME280;50724;42.376;23.768;2023-02-11T05:32:32;94559.81;;;-7.51;75.85
64402;BME280;50724;42.376;23.768;2023-02-11T05:35:33;94567.53;;;-7.59;75.68
64402;BME280;50724;42.376;23.768;2023-02-11T05:38:34;94573.69;;;-7.72;76.79
64402;BME280;50724;42.376;23.768;2023-02-11T05:41:35;94571.84;;;-8.19;78.04
64402;BME280;50724;42.376;23.768;2023-02-11T05:44:35;94566.22;;;-7.81;77.59
64402;BME280;50724;42.376;23.768;2023-02-11T05:47:36;94562.63;;;-7.68;77.01
64402;BME280;50724;42.376;23.768;2023-02-11T05:50:36;94571.53;;;-7.99;78.79
64402;BME280;50724;42.376;23.768;2023-02-11T05:53:36;94573.69;;;-7.72;78.05
64402;BME280;50724;42.376;23.768;2023-02-11T05:56:37;94578.50;;;-7.57;77.08
64402;BME280;50724;42.376;23.768;2023-02-11T05:59:37;94568.63;;;-7.23;75.63
64402;BME280;50724;42.376;23.768;2023-02-11T06:02:38;94571.00;;;-7.14;75.78
64402;BME280;50724;42.376;23.768;2023-02-11T06:05:39;94575.63;;;-6.88;74.41
64402;BME280;50724;42.376;23.768;2023-02-11T06:08:39;94576.28;;;-6.79;73.63
64402;BME280;50724;42.376;23.768;2023-02-11T06:11:40;94582.13;;;-6.31;70.93
64402;BME280;50724;42.376;23.768;2023-02-11T06:14:40;94570.38;;;-5.98;68.75
64402;BME280;50724;42.376;23.768;2023-02-11T06:17:41;94571.91;;;-5.91;69.41
64402;BME280;50724;42.376;23.768;2023-02-11T06:20:41;94575.66;;;-5.71;70.20
64402;BME280;50724;42.376;23.768;2023-02-11T06:23:41;94567.84;;;-5.63;69.56
64402;BME280;50724;42.376;23.768;2023-02-11T06:26:59;94569.88;;;-5.77;70.21
64402;BME280;50724;42.376;23.768;2023-02-11T06:29:59;94561.69;;;-5.54;67.48
64402;BME280;50724;42.376;23.768;2023-02-11T06:33:00;94565.84;;;-5.17;64.72
64402;BME280;50724;42.376;23.768;2023-02-11T06:36:01;94570.69;;;-4.75;64.01
64402;BME280;50724;42.376;23.768;2023-02-11T06:39:01;94570.25;;;-4.59;63.71
64402;BME280;50724;42.376;23.768;2023-02-11T06:42:02;94567.94;;;-4.37;63.70
64402;BME280;50724;42.376;23.768;2023-02-11T06:45:03;94563.50;;;-4.31;63.64
64402;BME280;50724;42.376;23.768;2023-02-11T06:48:05;94556.53;;;-4.26;64.25
64402;BME280;50724;42.376;23.768;2023-02-11T06:51:08;94565.34;;;-4.06;63.95
64402;BME280;50724;42.376;23.768;2023-02-11T06:54:10;94565.94;;;-3.69;61.44
64402;BME280;50724;42.376;23.768;2023-02-11T06:57:10;94565.63;;;-3.60;61.13
64402;BME280;50724;42.376;23.768;2023-02-11T07:00:11;94565.34;;;-3.51;60.39
64402;BME280;50724;42.376;23.768;2023-02-11T07:03:12;94557.84;;;-3.29;61.68
64402;BME280;50724;42.376;23.768;2023-02-11T07:06:18;94562.88;;;-3.26;61.39
64402;BME280;50724;42.376;23.768;2023-02-11T07:09:19;94566.94;;;-3.21;62.02
64402;BME280;50724;42.376;23.768;2023-02-11T07:12:19;94562.03;;;-3.27;61.89
64402;BME280;50724;42.376;23.768;2023-02-11T07:15:20;94554.81;;;-3.16;61.28
64402;BME280;50724;42.376;23.768;2023-02-11T07:18:20;94554.88;;;-3.17;62.50
64402;BME280;50724;42.376;23.768;2023-02-11T07:21:21;94556.84;;;-3.25;61.68
64402;BME280;50724;42.376;23.768;2023-02-11T07:24:21;94553.22;;;-3.18;61.54
64402;BME280;50724;42.376;23.768;2023-02-11T07:27:22;94555.06;;;-2.97;58.99
64402;BME280;50724;42.376;23.768;2023-02-11T07:30:23;94551.56;;;-2.95;60.46
64402;BME280;50724;42.376;23.768;2023-02-11T07:33:23;94558.56;;;-2.75;60.05
64402;BME280;50724;42.376;23.768;2023-02-11T07:36:24;94558.25;;;-2.66;59.43
64402;BME280;50724;42.376;23.768;2023-02-11T07:39:24;94554.16;;;-2.47;59.28
64402;BME280;50724;42.376;23.768;2023-02-11T07:42:26;94558.53;;;-2.26;58.09
64402;BME280;50724;42.376;23.768;2023-02-11T07:45:26;94543.59;;;-2.15;58.96
64402;BME280;50724;42.376;23.768;2023-02-11T07:48:27;94556.00;;;-1.81;57.88
64402;BME280;50724;42.376;23.768;2023-02-11T07:51:29;94564.94;;;-1.69;57.29
64402;BME280;50724;42.376;23.768;2023-02-11T07:54:30;94556.72;;;-1.56;55.07
64402;BME280;50724;42.376;23.768;2023-02-11T07:57:30;94556.34;;;-1.68;54.00
64402;BME280;50724;42.376;23.768;2023-02-11T08:00:31;94556.53;;;-1.51;55.59
64402;BME280;50724;42.376;23.768;2023-02-11T08:03:33;94554.34;;;-1.60;56.51
64402;BME280;50724;42.376;23.768;2023-02-11T08:06:42;94550.59;;;-1.10;53.84
64402;BME280;50724;42.376;23.768;2023-02-11T08:34:27;94538.59;;;-0.10;52.66
64402;BME280;50724;42.376;23.768;2023-02-11T08:37:28;94533.38;;;0.29;50.57
64402;BME280;50724;42.376;23.768;2023-02-11T08:40:28;94537.00;;;0.25;49.18
64402;BME280;50724;42.376;23.768;2023-02-11T08:43:29;94531.16;;;0.40;49.65
64402;BME280;50724;42.376;23.768;2023-02-11T08:46:29;94533.44;;;0.46;48.50
64402;BME280;50724;42.376;23.768;2023-02-11T08:49:30;94535.78;;;0.50;49.31
64402;BME280;50724;42.376;23.768;2023-02-11T08:52:31;94530.75;;;0.66;47.02
64402;BME280;50724;42.376;23.768;2023-02-11T08:55:31;94533.91;;;0.73;47.46
64402;BME280;50724;42.376;23.768;2023-02-11T08:58:32;94532.53;;;0.83;48.04
64402;BME280;50724;42.376;23.768;2023-02-11T09:01:33;94527.38;;;0.83;46.71
64402;BME280;50724;42.376;23.768;2023-02-11T09:04:34;94538.97;;;1.08;48.32
64402;BME280;50724;42.376;23.768;2023-02-11T09:07:34;94539.38;;;1.35;45.97
64402;BME280;50724;42.376;23.768;2023-02-11T09:10:35;94534.81;;;1.23;45.44
64402;BME280;50724;42.376;23.768;2023-02-11T09:13:36;94530.44;;;1.08;47.77
64402;BME280;50724;42.376;23.768;2023-02-11T09:16:36;94529.06;;;1.18;46.04
64402;BME280;50724;42.376;23.768;2023-02-11T09:19:37;94533.22;;;1.20;46.44
64402;BME280;50724;42.376;23.768;2023-02-11T09:22:37;94526.28;;;1.72;45.27
64402;BME280;50724;42.376;23.768;2023-02-11T09:25:39;94522.53;;;2.11;43.05
64402;BME280;50724;42.376;23.768;2023-02-11T09:28:40;94518.19;;;2.11;43.25
64402;BME280;50724;42.376;23.768;2023-02-11T09:31:40;94511.94;;;1.99;43.68
64402;BME280;50724;42.376;23.768;2023-02-11T09:34:41;94510.84;;;1.88;44.73
64402;BME280;50724;42.376;23.768;2023-02-11T09:37:41;94511.03;;;1.85;41.82
64402;BME280;50724;42.376;23.768;2023-02-11T09:40:45;94504.91;;;2.34;41.57
64402;BME280;50724;42.376;23.768;2023-02-11T09:43:46;94486.59;;;2.39;41.37
64402;BME280;50724;42.376;23.768;2023-02-11T09:46:53;94489.59;;;2.62;42.02
64402;BME280;50724;42.376;23.768;2023-02-11T09:50:03;94473.75;;;2.53;42.86
64402;BME280;50724;42.376;23.768;2023-02-11T09:53:09;94474.75;;;2.50;42.90
64402;BME280;50724;42.376;23.768;2023-02-11T09:56:13;94471.75;;;2.42;41.78
64402;BME280;50724;42.376;23.768;2023-02-11T09:59:15;94469.91;;;2.44;41.57
64402;BME280;50724;42.376;23.768;2023-02-11T10:02:25;94462.28;;;2.43;40.71
64402;BME280;50724;42.376;23.768;2023-02-11T10:09:29;94444.91;;;2.76;41.14
64402;BME280;50724;42.376;23.768;2023-02-11T10:22:48;94419.47;;;3.42;38.01
64402;BME280;50724;42.376;23.768;2023-02-11T10:25:51;94410.59;;;3.32;38.34
64402;BME280;50724;42.376;23.768;2023-02-11T10:28:55;94395.91;;;3.32;37.74
64402;BME280;50724;42.376;23.768;2023-02-11T10:32:00;94397.00;;;3.57;39.82
64402;BME280;50724;42.376;23.768;2023-02-11T10:35:20;94381.94;;;3.77;38.89
64402;BME280;50724;42.376;23.768;2023-02-11T10:38:21;94380.38;;;3.75;37.36
64402;BME280;50724;42.376;23.768;2023-02-11T10:41:27;94373.38;;;3.48;35.86
64402;BME280;50724;42.376;23.768;2023-02-11T10:44:38;94372.63;;;3.18;36.88
64402;BME280;50724;42.376;23.768;2023-02-11T10:47:41;94369.75;;;3.79;36.92
64402;BME280;50724;42.376;23.768;2023-02-11T10:50:42;94361.44;;;4.01;34.10
64402;BME280;50724;42.376;23.768;2023-02-11T10:53:43;94355.41;;;3.88;32.16
64402;BME280;50724;42.376;23.768;2023-02-11T10:56:49;94345.72;;;4.04;37.96
64402;BME280;50724;42.376;23.768;2023-02-11T10:59:56;94340.31;;;3.94;36.99
64402;BME280;50724;42.376;23.768;2023-02-11T11:02:59;94339.97;;;4.13;39.34
64402;BME280;50724;42.376;23.768;2023-02-11T11:06:04;94330.69;;;3.70;38.62
64402;BME280;50724;42.376;23.768;2023-02-11T11:09:05;94326.81;;;3.48;39.69
64402;BME280;50724;42.376;23.768;2023-02-11T11:15:30;94319.50;;;3.69;40.06
64402;BME280;50724;42.376;23.768;2023-02-11T11:18:31;94319.13;;;4.02;36.22
64402;BME280;50724;42.376;23.768;2023-02-11T11:21:45;94307.50;;;3.95;37.84
64402;BME280;50724;42.376;23.768;2023-02-11T11:24:47;94301.69;;;4.18;35.59
64402;BME280;50724;42.376;23.768;2023-02-11T11:27:56;94294.94;;;4.15;37.28
64402;BME280;50724;42.376;23.768;2023-02-11T11:30:58;94286.31;;;4.42;36.41
64402;BME280;50724;42.376;23.768;2023-02-11T11:34:04;94291.56;;;4.28;37.64
64402;BME280;50724;42.376;23.768;2023-02-11T11:37:35;94289.69;;;3.90;38.67
64402;BME280;50724;42.376;23.768;2023-02-11T11:40:36;94287.16;;;4.03;38.57
64402;BME280;50724;42.376;23.768;2023-02-11T11:43:36;94275.56;;;4.08;37.90
64402;BME280;50724;42.376;23.768;2023-02-11T11:46:40;94268.78;;;4.33;38.92
64402;BME280;50724;42.376;23.768;2023-02-11T11:53:12;94259.59;;;4.02;38.46
64402;BME280;50724;42.376;23.768;2023-02-11T11:56:25;94274.03;;;4.18;37.46
64402;BME280;50724;42.376;23.768;2023-02-11T11:59:26;94258.69;;;4.03;37.80
64402;BME280;50724;42.376;23.768;2023-02-11T12:06:23;94258.69;;;4.03;37.63
64402;BME280;50724;42.376;23.768;2023-02-11T12:13:22;94250.75;;;4.18;38.97
64402;BME280;50724;42.376;23.768;2023-02-11T12:23:20;94238.25;;;4.63;34.72
64402;BME280;50724;42.376;23.768;2023-02-11T12:39:48;94231.56;;;4.08;36.41
64402;BME280;50724;42.376;23.768;2023-02-11T12:46:32;94218.13;;;4.16;36.42
64402;BME280;50724;42.376;23.768;2023-02-11T12:55:45;94215.25;;;4.33;37.28
64402;BME280;50724;42.376;23.768;2023-02-11T12:58:51;94212.31;;;4.25;36.78
64402;BME280;50724;42.376;23.768;2023-02-11T13:01:54;94208.91;;;4.25;35.96
64402;BME280;50724;42.376;23.768;2023-02-11T13:08:29;94211.78;;;4.20;36.53
64402;BME280;50724;42.376;23.768;2023-02-11T13:11:39;94196.72;;;4.52;36.08
64402;BME280;50724;42.376;23.768;2023-02-11T13:14:42;94201.25;;;4.36;35.50
64402;BME280;50724;42.376;23.768;2023-02-11T13:17:57;94203.94;;;4.72;36.20
64402;BME280;50724;42.376;23.768;2023-02-11T13:25:18;94196.59;;;4.78;35.59
64402;BME280;50724;42.376;23.768;2023-02-11T13:28:05;94200.72;;;4.18;35.29
64402;BME280;50724;42.376;23.768;2023-02-11T13:31:11;94191.28;;;4.04;36.31
64402;BME280;50724;42.376;23.768;2023-02-11T13:37:46;94194.28;;;3.98;34.59
64402;BME280;50724;42.376;23.768;2023-02-11T13:41:14;94189.31;;;4.21;35.40
64402;BME280;50724;42.376;23.768;2023-02-11T13:44:21;94184.69;;;4.26;35.14
64402;BME280;50724;42.376;23.768;2023-02-11T13:47:29;94180.84;;;4.18;35.38
64402;BME280;50724;42.376;23.768;2023-02-11T13:50:36;94182.03;;;3.88;36.52
64402;BME280;50724;42.376;23.768;2023-02-11T13:53:52;94178.84;;;3.97;35.67
64402;BME280;50724;42.376;23.768;2023-02-11T14:03:37;94176.16;;;4.11;36.07
64402;BME280;50724;42.376;23.768;2023-02-11T14:07:32;94184.56;;;3.75;36.00
64402;BME280;50724;42.376;23.768;2023-02-11T14:11:09;94176.59;;;3.66;37.47
64402;BME280;50724;42.376;23.768;2023-02-11T14:17:17;94171.56;;;3.89;36.97
64402;BME280;50724;42.376;23.768;2023-02-11T14:20:37;94173.84;;;3.81;36.47
64402;BME280;50724;42.376;23.768;2023-02-11T14:23:49;94166.53;;;3.61;37.30
64402;BME280;50724;42.376;23.768;2023-02-11T14:26:58;94168.59;;;3.56;37.32
64402;BME280;50724;42.376;23.768;2023-02-11T14:40:05;94157.78;;;3.37;38.35
64402;BME280;50724;42.376;23.768;2023-02-11T14:43:35;94159.34;;;3.39;37.94
64402;BME280;50724;42.376;23.768;2023-02-11T14:46:37;94159.13;;;3.42;38.66
64402;BME280;50724;42.376;23.768;2023-02-11T14:49:43;94152.00;;;3.46;38.79
64402;BME280;50724;42.376;23.768;2023-02-11T14:52:44;94158.25;;;3.29;38.82
64402;BME280;50724;42.376;23.768;2023-02-11T14:55:47;94148.50;;;3.20;39.06
64402;BME280;50724;42.376;23.768;2023-02-11T14:58:53;94155.22;;;3.23;38.95
64402;BME280;50724;42.376;23.768;2023-02-11T15:01:54;94153.66;;;3.20;39.22
64402;BME280;50724;42.376;23.768;2023-02-11T15:05:13;94150.03;;;2.96;39.89
64402;BME280;50724;42.376;23.768;2023-02-11T15:08:15;94161.22;;;2.83;40.27
64402;BME280;50724;42.376;23.768;2023-02-11T15:11:17;94163.38;;;2.48;41.21
64402;BME280;50724;42.376;23.768;2023-02-11T15:14:22;94168.06;;;2.13;42.11
64402;BME280;50724;42.376;23.768;2023-02-11T15:17:26;94163.03;;;1.96;42.73
64402;BME280;50724;42.376;23.768;2023-02-11T15:20:30;94162.00;;;1.84;43.19
64402;BME280;50724;42.376;23.768;2023-02-11T15:23:31;94158.16;;;1.91;43.10
64402;BME280;50724;42.376;23.768;2023-02-11T15:26:32;94160.69;;;1.77;43.54
64402;BME280;50724;42.376;23.768;2023-02-11T15:29:38;94161.56;;;1.62;43.77
64402;BME280;50724;42.376;23.768;2023-02-11T15:32:42;94162.88;;;1.39;44.29
64402;BME280;50724;42.376;23.768;2023-02-11T15:35:44;94158.44;;;1.12;44.81
64402;BME280;50724;42.376;23.768;2023-02-11T15:38:45;94156.19;;;1.06;45.26
64402;BME280;50724;42.376;23.768;2023-02-11T15:41:45;94148.03;;;0.82;46.09
64402;BME280;50724;42.376;23.768;2023-02-11T15:44:47;94149.38;;;0.89;45.58
64402;BME280;50724;42.376;23.768;2023-02-11T15:47:50;94148.41;;;0.76;46.03
64402;BME280;50724;42.376;23.768;2023-02-11T15:50:54;94142.59;;;0.73;46.37
64402;BME280;50724;42.376;23.768;2023-02-11T15:53:57;94148.66;;;0.56;46.34
64402;BME280;50724;42.376;23.768;2023-02-11T15:57:02;94148.56;;;0.57;48.84
64402;BME280;50724;42.376;23.768;2023-02-11T16:00:03;94145.13;;;0.41;49.41
64402;BME280;50724;42.376;23.768;2023-02-11T16:03:06;94160.31;;;-0.03;50.16
64402;BME280;50724;42.376;23.768;2023-02-11T16:06:16;94163.72;;;-0.36;51.18
64402;BME280;50724;42.376;23.768;2023-02-11T16:12:23;94153.13;;;-0.64;52.10
64402;BME280;50724;42.376;23.768;2023-02-11T16:15:48;94154.66;;;-1.13;53.91
64402;BME280;50724;42.376;23.768;2023-02-11T16:18:54;94154.66;;;-1.13;53.76
64402;BME280;50724;42.376;23.768;2023-02-11T16:22:01;94148.25;;;-1.05;53.93
64402;BME280;50724;42.376;23.768;2023-02-11T16:25:16;94159.66;;;-1.10;53.83
64402;BME280;50724;42.376;23.768;2023-02-11T16:28:16;94152.16;;;-1.33;56.55
64402;BME280;50724;42.376;23.768;2023-02-11T16:31:17;94144.22;;;-1.46;56.84
64402;BME280;50724;42.376;23.768;2023-02-11T16:34:20;94151.81;;;-1.45;56.46
64402;BME280;50724;42.376;23.768;2023-02-11T16:37:21;94148.09;;;-1.56;56.04
64402;BME280;50724;42.376;23.768;2023-02-11T16:40:21;94142.97;;;-1.75;56.39
64402;BME280;50724;42.376;23.768;2023-02-11T16:43:24;94144.47;;;-1.71;56.45
64402;BME280;50724;42.376;23.768;2023-02-11T16:46:25;94152.09;;;-1.88;56.21
64402;BME280;50724;42.376;23.768;2023-02-11T16:49:29;94144.84;;;-1.78;56.36
64402;BME280;50724;42.376;23.768;2023-02-11T16:52:30;94137.69;;;-1.90;56.47
64402;BME280;50724;42.376;23.768;2023-02-11T16:55:32;94147.88;;;-1.89;55.27
64402;BME280;50724;42.376;23.768;2023-02-11T16:58:33;94151.53;;;-1.76;55.11
64402;BME280;50724;42.376;23.768;2023-02-11T17:01:34;94160.44;;;-1.64;55.01
64402;BME280;50724;42.376;23.768;2023-02-11T17:04:36;94154.81;;;-1.54;54.30
64402;BME280;50724;42.376;23.768;2023-02-11T17:07:37;94148.00;;;-1.73;56.02
64402;BME280;50724;42.376;23.768;2023-02-11T17:10:37;94152.03;;;-1.49;47.51
64402;BME280;50724;42.376;23.768;2023-02-11T17:13:38;94156.47;;;-0.98;42.22
64402;BME280;50724;42.376;23.768;2023-02-11T17:16:41;94147.31;;;-0.51;41.68
64402;BME280;50724;42.376;23.768;2023-02-11T17:19:42;94156.75;;;-0.51;40.85
64402;BME280;50724;42.376;23.768;2023-02-11T17:31:07;94156.53;;;-0.30;42.68
64402;BME280;50724;42.376;23.768;2023-02-11T17:34:08;94145.34;;;-0.80;47.27
64402;BME280;50724;42.376;23.768;2023-02-11T17:37:09;94159.06;;;-1.17;49.08
64402;BME280;50724;42.376;23.768;2023-02-11T17:40:10;94145.09;;;-1.28;48.03
64402;BME280;50724;42.376;23.768;2023-02-11T17:43:11;94157.78;;;-1.63;47.07
64402;BME280;50724;42.376;23.768;2023-02-11T17:46:11;94160.69;;;-1.70;49.57
64402;BME280;50724;42.376;23.768;2023-02-11T17:49:13;94152.59;;;-2.19;50.95
64402;BME280;50724;42.376;23.768;2023-02-11T17:52:14;94146.59;;;-1.99;47.67
64402;BME280;50724;42.376;23.768;2023-02-11T17:55:16;94150.09;;;-2.20;48.05
64402;BME280;50724;42.376;23.768;2023-02-11T17:58:17;94162.34;;;-2.47;48.53
64402;BME280;50724;42.376;23.768;2023-02-11T18:01:18;94154.41;;;-2.61;51.95
64402;BME280;50724;42.376;23.768;2023-02-11T18:04:19;94163.41;;;-2.72;51.16
64402;BME280;50724;42.376;23.768;2023-02-11T18:07:19;94160.13;;;-2.76;51.48
64402;BME280;50724;42.376;23.768;2023-02-11T18:10:20;94163.81;;;-2.61;49.78
64402;BME280;50724;42.376;23.768;2023-02-11T18:13:20;94165.47;;;-2.40;48.25
64402;BME280;50724;42.376;23.768;2023-02-11T18:16:22;94169.53;;;-2.35;48.55
64402;BME280;50724;42.376;23.768;2023-02-11T18:19:23;94161.66;;;-2.30;47.24
64402;BME280;50724;42.376;23.768;2023-02-11T18:22:24;94165.28;;;-2.36;47.11
64402;BME280;50724;42.376;23.768;2023-02-11T18:25:25;94166.56;;;-2.46;46.19
64402;BME280;50724;42.376;23.768;2023-02-11T18:28:25;94171.22;;;-2.15;39.52
64402;BME280;50724;42.376;23.768;2023-02-11T18:31:26;94175.53;;;-1.58;36.31
64402;BME280;50724;42.376;23.768;2023-02-11T18:34:26;94176.31;;;-1.38;34.35
64402;BME280;50724;42.376;23.768;2023-02-11T18:37:27;94171.09;;;-1.17;32.58
64402;BME280;50724;42.376;23.768;2023-02-11T18:40:27;94169.56;;;-1.21;34.13